SBOSBO ALG / DAAG
Speedbird OnlineSpeedbird Online ALG / DAAG

Houari Boumediene Airport
16:26 32°C

Location Algier, Algeria
Latitude: 36.691001892089844
Longitude: 3.215409994125366
Local Time 16:26 on 30 May 2024
UTC +1 hours (Africa/Algiers)
Currency £1 equals DZD 171.30
METAR DAAG 301500Z 06011KT CAVOK 32/09 Q1009
TAF TAF DAAG 301100Z 3012/3112 04010KT CAVOK BECMG 3018/3020 VRB02KT PROB30 TEMPO 3100/3106 4000 BR BECMG 3108/3110 04012KT PROB40 TEMPO 3110/3112 06015G25KT
Weather As Of 30 May 2024 16:26
Description Clear sky
Wind 20 km/h from North-East (60°)
Cloud Cover 0%
Precipitation Rain: none, Snow: none
Sunrise 05:30
Sunset 19:59
NOTAM 16 active NOTAM
Rotations During the last 90 days there were
79 flights from LGW
79 flights to LGW
Lounges Salon Premiere Classe, Between Terminal 1 and 2
Web Wikipedia
Codes IATA: ALG
ICAO: DAAG
Altitude 25 Meter / 82 Feet
Distance 1,666 KM / 1,035 Miles
from London.
Runways
RunwayLength (m)Surface
053500Asphalt
093500Asphalt
233500Asphalt
273500Asphalt
Radio
TypeDescriptionFrequency
APPALGIERS APP121.4
CCRALGIERS CCR127.3
GNDALGIERS GND121.8
TWRALGIERS TWR118.7
Live ATC



Support Speedbird Online

© 2017-2024 Speedbird Online